Time;durP1;ratioP1;P1;durP2;ratioP2;P2;SDS_P1;SDS_P2;PMS_P1;PMS_P2;Temp;Humidity;BMP_temperature;BMP_pressure;BME280_temperature;BME280_humidity;BME280_pressure;Samples;Min_cycle;Max_cycle;Signal;HPM_P1;HPM_P2
2022/10/17 00:02:56;;;;;;;12.07;10.97;;;13.60;1.00;;;;;;6386762;27;20757;-53
2022/10/17 00:05:59;;;;;;;10.67;9.80;;;13.60;1.00;;;;;;6387255;27;20253;-55
2022/10/17 00:09:02;;;;;;;11.93;10.80;;;13.70;1.00;;;;;;6381303;27;20233;-54
2022/10/17 00:12:06;;;;;;;10.83;10.03;;;13.70;1.00;;;;;;6377444;27;20265;-55
2022/10/17 00:15:11;;;;;;;10.60;9.90;;;13.70;1.00;;;;;;6380734;27;20302;-54
2022/10/17 00:18:14;;;;;;;11.13;10.23;;;13.70;1.00;;;;;;6387655;27;20580;-54
2022/10/17 00:21:17;;;;;;;10.73;9.87;;;13.70;1.00;;;;;;6377958;27;20237;-55
2022/10/17 00:24:20;;;;;;;15.30;13.70;;;13.70;1.00;;;;;;6388583;27;20222;-55
2022/10/17 00:27:24;;;;;;;13.00;11.80;;;13.70;1.00;;;;;;6376332;27;20233;-55
2022/10/17 00:30:27;;;;;;;11.47;10.50;;;13.80;1.00;;;;;;6387741;27;20229;-56
2022/10/17 00:33:31;;;;;;;11.90;10.80;;;13.80;1.00;;;;;;6386698;27;20622;-55
2022/10/17 00:36:34;;;;;;;11.77;10.77;;;13.70;1.00;;;;;;6357569;27;20245;-53
2022/10/17 00:39:37;;;;;;;9.97;9.13;;;13.80;1.00;;;;;;6387014;27;20319;-55
2022/10/17 00:42:41;;;;;;;11.30;10.30;;;13.70;1.00;;;;;;6374304;27;20615;-55
2022/10/17 00:45:44;;;;;;;9.77;9.07;;;13.70;1.00;;;;;;6362137;27;20726;-53
2022/10/17 00:48:49;;;;;;;10.93;9.90;;;13.70;1.00;;;;;;6372024;27;20238;-55
2022/10/17 00:51:54;;;;;;;9.47;8.77;;;13.70;1.00;;;;;;6360784;27;20247;-54
2022/10/17 00:55:08;;;;;;;9.23;8.60;;;13.70;1.00;;;;;;6377093;27;20623;-53
2022/10/17 00:58:12;;;;;;;9.43;8.73;;;13.80;1.00;;;;;;6386624;27;20242;-54
2022/10/17 01:01:15;;;;;;;7.77;7.37;;;13.80;1.00;;;;;;6360819;27;20239;-53
2022/10/17 01:04:19;;;;;;;7.23;6.93;;;13.80;1.00;;;;;;6360961;27;20266;-55
2022/10/17 01:07:22;;;;;;;7.20;6.80;;;13.80;1.00;;;;;;6368698;27;20242;-55
2022/10/17 01:10:31;;;;;;;7.87;7.37;;;13.80;1.00;;;;;;6386419;27;20237;-52
2022/10/17 01:13:41;;;;;;;6.77;6.37;;;13.90;1.00;;;;;;6386562;27;20332;-55
2022/10/17 01:16:51;;;;;;;8.20;7.70;;;13.80;1.00;;;;;;6361393;27;20653;-53
2022/10/17 01:20:23;;;;;;;7.60;7.10;;;13.90;1.00;;;;;;6362903;27;20440;-55
2022/10/17 01:23:41;;;;;;;7.30;6.90;;;13.90;1.00;;;;;;6362879;27;20239;-55
2022/10/17 01:27:09;;;;;;;7.50;7.00;;;13.80;1.00;;;;;;6387522;27;20256;-54
2022/10/17 01:30:46;;;;;;;7.20;6.77;;;13.70;1.00;;;;;;6381100;27;20238;-53
2022/10/17 01:33:59;;;;;;;6.80;6.40;;;13.80;1.00;;;;;;6363460;27;20417;-58
2022/10/17 01:37:06;;;;;;;7.60;7.10;;;13.70;1.00;;;;;;6366681;27;20234;-54
2022/10/17 01:40:13;;;;;;;6.50;6.10;;;13.70;1.00;;;;;;6383753;27;20238;-54
2022/10/17 01:43:20;;;;;;;6.97;6.50;;;13.70;1.00;;;;;;6382985;27;20722;-53
2022/10/17 01:46:29;;;;;;;6.53;6.23;;;13.70;1.00;;;;;;6376475;27;20306;-53
2022/10/17 01:49:35;;;;;;;6.60;6.30;;;13.70;1.00;;;;;;6380474;27;20219;-55
2022/10/17 01:52:43;;;;;;;6.30;5.93;;;13.60;1.00;;;;;;6360111;27;20250;-55
2022/10/17 01:55:48;;;;;;;6.07;5.77;;;13.60;1.00;;;;;;6358914;27;20227;-56
2022/10/17 01:58:56;;;;;;;6.63;6.30;;;13.50;1.00;;;;;;6384188;27;20234;-54
2022/10/17 02:02:00;;;;;;;6.00;5.70;;;13.50;1.00;;;;;;6385456;27;20234;-54
2022/10/17 02:05:05;;;;;;;5.83;5.63;;;13.40;1.00;;;;;;6384871;27;20593;-54
2022/10/17 02:08:08;;;;;;;6.13;5.83;;;13.40;1.00;;;;;;6383375;27;20231;-55
2022/10/17 02:11:14;;;;;;;5.93;5.73;;;13.40;1.00;;;;;;6378704;27;20246;-53
2022/10/17 02:14:27;;;;;;;7.83;7.23;;;13.30;1.00;;;;;;6373176;27;20234;-54
2022/10/17 02:17:44;;;;;;;7.40;6.73;;;13.30;1.00;;;;;;6383638;27;20725;-54
2022/10/17 02:20:53;;;;;;;6.57;6.27;;;13.30;1.00;;;;;;6379379;27;20613;-53
2022/10/17 02:24:06;;;;;;;6.27;6.07;;;13.30;1.00;;;;;;6378952;27;20241;-52
2022/10/17 02:27:15;;;;;;;8.17;7.70;;;13.30;1.00;;;;;;6383824;27;20235;-55
2022/10/17 02:30:31;;;;;;;7.03;6.70;;;13.30;1.00;;;;;;6379524;27;20235;-53
2022/10/17 02:33:38;;;;;;;7.30;7.00;;;13.30;1.00;;;;;;6357930;27;20236;-54
2022/10/17 02:36:46;;;;;;;7.60;7.20;;;13.30;1.00;;;;;;6360371;27;20738;-65
2022/10/17 02:39:50;;;;;;;7.53;6.83;;;13.40;1.00;;;;;;6380506;27;20247;-53
2022/10/17 02:42:55;;;;;;;6.33;6.03;;;13.40;1.00;;;;;;6358954;27;20777;-54
2022/10/17 02:45:58;;;;;;;6.70;6.30;;;13.40;1.00;;;;;;6358822;27;20242;-54
2022/10/17 02:49:05;;;;;;;6.43;6.13;;;13.40;1.00;;;;;;6370419;27;20230;-54
2022/10/17 02:52:14;;;;;;;7.10;6.50;;;13.40;1.00;;;;;;6374646;27;20243;-52
2022/10/17 02:55:19;;;;;;;6.50;6.00;;;13.40;1.00;;;;;;6360727;27;20222;-54
2022/10/17 02:58:31;;;;;;;7.17;6.80;;;13.40;1.00;;;;;;6383293;27;20229;-55
2022/10/17 03:01:35;;;;;;;7.67;7.20;;;13.40;1.00;;;;;;6364505;27;20243;-58
2022/10/17 03:04:42;;;;;;;6.50;6.20;;;13.40;1.00;;;;;;6358211;28;20238;-54
2022/10/17 03:07:46;;;;;;;6.87;6.53;;;13.40;1.00;;;;;;6372454;27;20237;-54
2022/10/17 03:10:49;;;;;;;7.20;6.70;;;13.40;1.00;;;;;;6379688;27;20229;-54
2022/10/17 03:13:52;;;;;;;7.10;6.80;;;13.40;1.00;;;;;;6383173;27;20257;-55
2022/10/17 03:16:54;;;;;;;8.00;7.50;;;13.40;1.00;;;;;;6358321;27;20676;-53
2022/10/17 03:19:57;;;;;;;7.23;6.83;;;13.40;1.00;;;;;;6362425;27;20234;-54
2022/10/17 03:23:01;;;;;;;7.43;7.03;;;13.40;1.00;;;;;;6367492;27;20233;-53
2022/10/17 03:26:05;;;;;;;7.97;7.53;;;13.30;1.00;;;;;;6388244;27;20222;-53
2022/10/17 03:29:08;;;;;;;8.40;7.63;;;13.40;1.00;;;;;;6387795;27;20227;-55
2022/10/17 03:32:10;;;;;;;7.83;7.03;;;13.40;1.00;;;;;;6368647;27;20643;-54
2022/10/17 03:35:13;;;;;;;7.63;6.93;;;13.40;1.00;;;;;;6386741;27;20702;-54
2022/10/17 03:38:18;;;;;;;7.00;6.70;;;13.50;1.00;;;;;;6382178;27;20314;-54
2022/10/17 03:41:21;;;;;;;7.03;6.73;;;13.40;1.00;;;;;;6383260;27;20231;-54
2022/10/17 03:44:24;;;;;;;6.63;6.33;;;13.50;1.00;;;;;;6386668;27;20231;-54
2022/10/17 03:47:28;;;;;;;6.67;6.30;;;13.40;1.00;;;;;;6385800;27;20227;-53
2022/10/17 03:50:31;;;;;;;6.93;6.53;;;13.50;1.00;;;;;;6384162;27;20591;-54
2022/10/17 03:53:35;;;;;;;7.43;6.87;;;13.50;1.00;;;;;;6386349;27;20226;-54
2022/10/17 03:56:38;;;;;;;7.40;6.87;;;13.50;1.00;;;;;;6383727;27;20620;-54
2022/10/17 03:59:41;;;;;;;6.97;6.57;;;13.50;1.00;;;;;;6385707;27;20226;-54
2022/10/17 04:02:44;;;;;;;7.80;7.33;;;13.50;1.00;;;;;;6386228;27;20480;-54
2022/10/17 04:05:47;;;;;;;7.67;7.10;;;13.50;1.00;;;;;;6386262;27;20241;-54
2022/10/17 04:08:51;;;;;;;6.67;6.47;;;13.50;1.00;;;;;;6385955;27;20626;-54
2022/10/17 04:11:54;;;;;;;7.73;7.30;;;13.40;1.00;;;;;;6387008;27;20240;-54
2022/10/17 04:14:56;;;;;;;6.50;6.27;;;13.40;1.00;;;;;;6385207;27;20230;-53
2022/10/17 04:17:59;;;;;;;7.47;6.97;;;13.40;1.00;;;;;;6380877;27;20245;-55
2022/10/17 04:21:02;;;;;;;7.63;7.23;;;13.40;1.00;;;;;;6383817;27;20274;-54
2022/10/17 04:24:09;;;;;;;7.40;7.00;;;13.40;1.00;;;;;;6381080;27;20428;-53
2022/10/17 04:27:12;;;;;;;7.97;7.47;;;13.30;1.00;;;;;;6371927;27;20248;-54
2022/10/17 04:30:15;;;;;;;7.73;7.07;;;13.40;1.00;;;;;;6356129;27;20253;-54
2022/10/17 04:33:18;;;;;;;7.57;7.17;;;13.30;1.00;;;;;;6386100;27;20798;-54
2022/10/17 04:36:22;;;;;;;7.60;7.10;;;13.30;1.00;;;;;;6382947;27;20222;-54
2022/10/17 04:39:26;;;;;;;8.37;7.97;;;13.30;1.00;;;;;;6385017;27;20218;-54
2022/10/17 04:42:29;;;;;;;7.87;7.37;;;13.30;1.00;;;;;;6361711;27;20711;-53
2022/10/17 04:45:32;;;;;;;8.03;7.33;;;13.30;1.00;;;;;;6380396;27;20469;-53
2022/10/17 04:48:35;;;;;;;7.97;7.57;;;13.30;1.00;;;;;;6383511;27;20247;-56
2022/10/17 04:51:38;;;;;;;8.10;7.40;;;13.30;1.00;;;;;;6383829;27;20255;-54
2022/10/17 04:54:42;;;;;;;7.90;7.27;;;13.30;1.00;;;;;;6385945;27;20233;-54
2022/10/17 04:57:45;;;;;;;6.67;6.30;;;13.20;1.00;;;;;;6384363;27;20219;-53
2022/10/17 05:00:48;;;;;;;6.53;6.23;;;13.30;1.00;;;;;;6383638;27;20622;-52
2022/10/17 05:03:51;;;;;;;6.97;6.67;;;13.20;1.00;;;;;;6385438;27;20644;-54
2022/10/17 05:06:54;;;;;;;7.73;7.30;;;13.30;1.00;;;;;;6393000;27;20321;-55
2022/10/17 05:09:58;;;;;;;9.10;8.30;;;13.30;1.00;;;;;;6387925;27;20238;-55
2022/10/17 05:13:01;;;;;;;7.97;7.50;;;13.20;1.00;;;;;;6386153;27;20341;-53
2022/10/17 05:16:04;;;;;;;8.97;8.27;;;13.20;1.00;;;;;;6383488;27;20231;-54
2022/10/17 05:19:07;;;;;;;8.90;8.27;;;13.20;1.00;;;;;;6385507;27;20315;-53
2022/10/17 05:22:10;;;;;;;7.60;7.10;;;13.20;1.00;;;;;;6384024;27;20250;-54
2022/10/17 05:25:14;;;;;;;9.30;8.70;;;13.20;1.00;;;;;;6385486;27;20238;-54
2022/10/17 05:28:17;;;;;;;8.17;7.77;;;13.10;1.00;;;;;;6383830;27;20734;-54
2022/10/17 05:31:20;;;;;;;8.70;8.10;;;13.10;1.00;;;;;;6384710;27;20870;-53
2022/10/17 05:34:23;;;;;;;9.33;8.67;;;13.20;1.00;;;;;;6381427;27;20235;-54
2022/10/17 05:37:28;;;;;;;9.80;8.90;;;13.20;1.00;;;;;;6379434;27;20237;-54
2022/10/17 05:40:33;;;;;;;9.60;8.97;;;13.20;1.00;;;;;;6380633;27;20242;-54
2022/10/17 05:43:36;;;;;;;8.77;8.27;;;13.20;1.00;;;;;;6381575;27;20235;-54
2022/10/17 05:46:39;;;;;;;9.80;8.97;;;13.20;1.00;;;;;;6381391;27;20697;-54
2022/10/17 05:49:42;;;;;;;10.83;9.43;;;13.10;1.00;;;;;;6384409;27;20234;-54
2022/10/17 05:52:54;;;;;;;8.40;7.90;;;13.20;1.00;;;;;;6384268;27;20314;-54
2022/10/17 05:55:59;;;;;;;9.50;8.90;;;13.20;1.00;;;;;;6378045;27;20237;-53
2022/10/17 05:59:02;;;;;;;9.50;8.83;;;13.20;1.00;;;;;;6384134;27;20241;-55
2022/10/17 06:02:05;;;;;;;9.00;8.43;;;13.20;1.00;;;;;;6384166;27;20729;-55
2022/10/17 06:05:08;;;;;;;10.30;9.50;;;13.20;1.00;;;;;;6379589;27;20230;-53
2022/10/17 06:08:11;;;;;;;9.37;8.87;;;13.30;1.00;;;;;;6382525;27;20241;-54
2022/10/17 06:11:15;;;;;;;9.53;8.83;;;13.30;1.00;;;;;;6380377;27;20231;-53
2022/10/17 06:14:18;;;;;;;10.17;9.27;;;13.30;1.00;;;;;;6383771;27;20339;-53
2022/10/17 06:17:21;;;;;;;10.40;9.70;;;13.30;1.00;;;;;;6379010;27;20246;-54
2022/10/17 06:20:24;;;;;;;9.60;9.00;;;13.40;1.00;;;;;;6383409;27;20238;-54
2022/10/17 06:23:27;;;;;;;8.97;8.37;;;13.50;1.00;;;;;;6383572;27;20235;-54
2022/10/17 06:26:31;;;;;;;10.17;9.10;;;13.60;1.00;;;;;;6380837;27;20238;-53
2022/10/17 06:29:34;;;;;;;9.00;8.20;;;13.60;1.00;;;;;;6389410;27;20231;-55
2022/10/17 06:32:37;;;;;;;9.37;8.77;;;13.60;1.00;;;;;;6390104;27;20257;-55
2022/10/17 06:35:39;;;;;;;9.70;8.80;;;13.70;1.00;;;;;;6384649;27;20222;-54
2022/10/17 06:38:42;;;;;;;8.43;7.83;;;13.70;1.00;;;;;;6382447;27;20223;-54
2022/10/17 06:41:46;;;;;;;9.43;8.73;;;13.70;1.00;;;;;;6382068;27;20238;-55
2022/10/17 06:44:49;;;;;;;9.20;8.60;;;13.80;1.00;;;;;;6386381;27;20241;-53
2022/10/17 06:47:52;;;;;;;10.00;9.30;;;13.80;1.00;;;;;;6382503;27;20237;-51
2022/10/17 06:50:59;;;;;;;8.33;7.70;;;13.90;1.00;;;;;;6375962;27;20234;-54
2022/10/17 06:54:02;;;;;;;9.10;8.40;;;14.00;1.00;;;;;;6382484;27;20715;-54
2022/10/17 06:57:06;;;;;;;9.87;8.90;;;14.10;1.00;;;;;;6373019;27;20607;-54
2022/10/17 07:00:10;;;;;;;8.37;7.87;;;14.10;1.00;;;;;;6383515;27;20247;-53
2022/10/17 07:03:13;;;;;;;10.93;9.03;;;14.10;1.00;;;;;;6383268;27;20253;-53
2022/10/17 07:06:16;;;;;;;9.80;8.80;;;14.20;1.00;;;;;;6382945;27;20234;-53
2022/10/17 07:09:19;;;;;;;10.70;9.13;;;14.20;1.00;;;;;;6379632;27;20380;-55
2022/10/17 07:12:24;;;;;;;12.47;9.90;;;14.30;1.00;;;;;;6382925;27;20765;-54
2022/10/17 07:15:27;;;;;;;9.50;8.43;;;14.40;1.00;;;;;;6373209;27;20246;-54
2022/10/17 07:18:29;;;;;;;9.10;8.40;;;14.50;1.00;;;;;;6372999;27;20613;-55
2022/10/17 07:21:32;;;;;;;9.83;8.87;;;14.60;1.00;;;;;;6382406;27;20238;-53
2022/10/17 07:24:40;;;;;;;8.50;7.90;;;14.70;1.00;;;;;;6381462;27;20261;-54
2022/10/17 07:27:44;;;;;;;7.87;7.17;;;14.80;1.00;;;;;;6372097;27;20284;-53
2022/10/17 07:30:47;;;;;;;7.70;7.17;;;14.90;1.00;;;;;;6383110;27;20237;-55
2022/10/17 07:33:56;;;;;;;8.23;7.57;;;15.00;1.00;;;;;;6372357;27;20234;-55
2022/10/17 07:36:58;;;;;;;7.50;6.90;;;15.10;1.00;;;;;;6383345;27;20512;-54
2022/10/17 07:40:01;;;;;;;6.60;6.30;;;15.10;1.00;;;;;;6381851;27;20231;-56
2022/10/17 07:43:05;;;;;;;7.60;7.00;;;15.20;1.00;;;;;;6370141;27;20242;-55
2022/10/17 07:46:10;;;;;;;7.47;6.93;;;15.30;1.00;;;;;;6382381;27;20408;-54
2022/10/17 07:49:13;;;;;;;7.20;6.60;;;15.40;1.00;;;;;;6382440;27;20230;-55
2022/10/17 07:52:17;;;;;;;8.07;7.20;;;15.50;1.00;;;;;;6379825;27;20378;-54
2022/10/17 07:55:20;;;;;;;7.43;6.93;;;15.60;1.00;;;;;;6383044;27;20222;-54
2022/10/17 07:58:24;;;;;;;9.67;7.90;;;15.70;1.00;;;;;;6382073;27;20227;-55
2022/10/17 08:01:27;;;;;;;10.23;7.10;;;15.80;1.00;;;;;;6377263;27;20231;-53
2022/10/17 08:04:30;;;;;;;7.53;6.87;;;16.00;1.00;;;;;;6385619;27;20241;-54
2022/10/17 08:07:33;;;;;;;6.87;6.40;;;16.10;1.00;;;;;;6383023;27;20222;-54
2022/10/17 08:10:36;;;;;;;6.80;6.37;;;16.20;1.00;;;;;;6384004;27;20230;-55
2022/10/17 08:13:41;;;;;;;6.57;6.13;;;16.30;1.00;;;;;;6380943;27;20231;-55
2022/10/17 08:16:44;;;;;;;6.80;6.10;;;16.40;1.00;;;;;;6387252;27;20234;-55
2022/10/17 08:19:47;;;;;;;6.20;5.87;;;16.50;1.00;;;;;;6384359;27;20234;-53
2022/10/17 08:22:53;;;;;;;6.20;5.80;;;16.70;1.00;;;;;;6387041;27;20404;-53
2022/10/17 08:25:59;;;;;;;6.87;5.33;;;16.90;1.00;;;;;;6385744;27;20238;-55
2022/10/17 08:29:03;;;;;;;6.97;5.40;;;17.10;1.00;;;;;;6382306;27;20235;-49
2022/10/17 08:32:08;;;;;;;6.17;5.23;;;17.20;1.00;;;;;;6379670;27;20323;-54
2022/10/17 08:35:13;;;;;;;5.20;5.00;;;17.30;1.00;;;;;;6386626;27;20231;-55
2022/10/17 08:38:16;;;;;;;5.57;5.23;;;17.40;1.00;;;;;;6383484;27;20532;-55
2022/10/17 08:41:37;;;;;;;6.10;5.70;;;17.50;1.00;;;;;;6376070;27;20604;-55
2022/10/17 08:44:56;;;;;;;6.53;5.40;;;17.60;1.00;;;;;;6386070;27;20257;-54
2022/10/17 08:48:01;;;;;;;6.07;5.57;;;17.80;1.00;;;;;;6377347;27;20443;-55
2022/10/17 08:51:10;;;;;;;7.50;5.63;;;17.90;1.00;;;;;;6384789;27;20237;-54
2022/10/17 08:54:17;;;;;;;4.63;4.33;;;18.00;1.00;;;;;;6384927;27;20232;-54
2022/10/17 08:57:20;;;;;;;5.23;5.03;;;18.20;1.00;;;;;;6373669;27;20727;-54
2022/10/17 09:00:26;;;;;;;5.93;5.50;;;18.30;1.00;;;;;;6383209;27;20227;-54
2022/10/17 09:03:43;;;;;;;5.10;4.80;;;18.40;1.00;;;;;;6385932;27;20253;-53
2022/10/17 09:06:51;;;;;;;7.90;5.00;;;18.50;1.00;;;;;;6381864;27;20583;-54
2022/10/17 09:10:03;;;;;;;5.20;4.80;;;18.70;1.00;;;;;;6386303;27;20235;-54
2022/10/17 09:13:17;;;;;;;8.20;4.80;;;18.90;1.00;;;;;;6378230;27;20279;-57
2022/10/17 09:16:40;;;;;;;6.40;4.40;;;19.00;1.00;;;;;;6372866;27;20223;-55
2022/10/17 09:19:49;;;;;;;4.57;4.30;;;19.10;1.00;;;;;;6383981;27;20247;-55
2022/10/17 09:22:56;;;;;;;4.50;4.10;;;19.30;1.00;;;;;;6386107;27;20242;-53
2022/10/17 09:26:01;;;;;;;4.63;4.33;;;19.50;1.00;;;;;;6378887;27;20706;-55
2022/10/17 09:29:15;;;;;;;4.87;4.13;;;19.50;1.00;;;;;;6385396;27;20661;-55
2022/10/17 09:32:23;;;;;;;7.93;4.63;;;19.70;1.00;;;;;;6374979;27;20820;-54
2022/10/17 09:35:29;;;;;;;4.60;4.30;;;19.80;1.00;;;;;;6380970;27;20231;-55
2022/10/17 09:38:38;;;;;;;4.37;4.00;;;20.00;1.00;;;;;;6384935;27;20230;-54
2022/10/17 09:41:44;;;;;;;4.13;3.93;;;20.10;1.00;;;;;;6376482;27;20493;-54
2022/10/17 09:44:52;;;;;;;4.80;4.47;;;20.30;1.00;;;;;;6382247;27;20322;-54
2022/10/17 09:48:05;;;;;;;4.43;4.03;;;20.40;1.00;;;;;;6385249;27;20769;-54
2022/10/17 09:51:09;;;;;;;4.57;4.17;;;20.40;1.00;;;;;;6380494;27;20226;-55
2022/10/17 09:54:33;;;;;;;4.93;4.47;;;20.50;1.00;;;;;;6385173;27;20230;-60
2022/10/17 09:57:53;;;;;;;4.43;4.23;;;20.60;1.00;;;;;;6385185;27;20226;-60
2022/10/17 10:01:16;;;;;;;5.03;4.60;;;20.80;1.00;;;;;;6374236;27;20306;-55
2022/10/17 10:04:26;;;;;;;6.27;3.90;;;20.90;1.00;;;;;;6385901;27;20279;-56
2022/10/17 10:07:39;;;;;;;4.70;4.50;;;21.00;1.00;;;;;;6381008;27;20440;-54
2022/10/17 10:10:43;;;;;;;4.50;4.23;;;21.00;1.00;;;;;;6384804;27;20230;-56
2022/10/17 10:13:48;;;;;;;6.13;4.03;;;21.20;1.00;;;;;;6381077;27;20273;-54
2022/10/17 10:16:53;;;;;;;4.47;4.27;;;21.40;1.00;;;;;;6382024;27;20235;-54
2022/10/17 10:19:57;;;;;;;6.40;4.17;;;21.60;1.00;;;;;;6378947;27;20505;-54
2022/10/17 10:23:11;;;;;;;4.90;4.53;;;21.80;1.00;;;;;;6380492;27;20600;-56
2022/10/17 10:26:25;;;;;;;5.33;4.83;;;21.90;1.00;;;;;;6383685;27;20242;-56
2022/10/17 10:29:31;;;;;;;6.03;5.50;;;21.90;1.00;;;;;;6384437;27;20691;-54
2022/10/17 10:32:36;;;;;;;9.10;5.60;;;21.90;1.00;;;;;;6380800;27;20829;-55
2022/10/17 10:35:40;;;;;;;5.90;5.23;;;21.90;1.00;;;;;;6383972;27;20227;-54
2022/10/17 10:38:53;;;;;;;7.80;4.93;;;21.90;1.00;;;;;;6383495;27;20241;-56
2022/10/17 10:41:56;;;;;;;6.80;4.50;;;22.00;1.00;;;;;;6370180;27;20246;-55
2022/10/17 10:45:02;;;;;;;6.80;4.93;;;22.10;1.00;;;;;;6384217;27;20816;-55
2022/10/17 10:48:18;;;;;;;13.63;4.47;;;22.20;1.00;;;;;;6379722;27;20238;-55
2022/10/17 10:51:27;;;;;;;4.70;4.30;;;22.30;1.00;;;;;;6380073;27;20230;-55
2022/10/17 10:54:35;;;;;;;5.30;4.80;;;22.50;1.00;;;;;;6383808;27;20238;-55
2022/10/17 10:57:39;;;;;;;4.57;4.17;;;22.70;1.00;;;;;;6382562;27;20758;-55
2022/10/17 11:00:43;;;;;;;4.07;3.87;;;22.80;1.00;;;;;;6381148;27;20280;-55
2022/10/17 11:03:55;;;;;;;4.93;3.87;;;22.80;1.00;;;;;;6383378;27;20614;-56
2022/10/17 11:07:04;;;;;;;5.13;4.43;;;22.90;1.00;;;;;;6376957;27;20228;-55
2022/10/17 11:10:14;;;;;;;5.50;3.97;;;22.90;1.00;;;;;;6381759;27;20241;-55
2022/10/17 11:13:23;;;;;;;5.63;4.23;;;22.90;1.00;;;;;;6383020;27;20449;-54
2022/10/17 11:16:32;;;;;;;4.07;3.70;;;23.10;1.00;;;;;;6380061;27;20238;-55
2022/10/17 11:19:42;;;;;;;5.90;4.23;;;23.20;1.00;;;;;;6383570;27;20238;-55
2022/10/17 11:22:48;;;;;;;4.10;3.80;;;23.30;1.00;;;;;;6380439;27;20239;-54
2022/10/17 11:25:53;;;;;;;4.70;4.03;;;23.40;1.00;;;;;;6382302;27;20238;-55
2022/10/17 11:28:59;;;;;;;4.20;3.90;;;23.50;1.00;;;;;;6378455;27;20239;-54
2022/10/17 11:32:06;;;;;;;4.10;3.80;;;23.60;1.00;;;;;;6375622;27;20326;-54
2022/10/17 11:35:19;;;;;;;8.10;4.00;;;23.60;1.00;;;;;;6383001;27;20230;-56
2022/10/17 11:38:30;;;;;;;4.20;3.90;;;23.70;1.00;;;;;;6380122;27;20626;-54
2022/10/17 11:41:39;;;;;;;3.93;3.80;;;23.80;1.00;;;;;;6382487;27;20231;-55
2022/10/17 11:44:43;;;;;;;4.27;3.77;;;23.90;1.00;;;;;;6385452;27;20542;-55
2022/10/17 11:47:49;;;;;;;4.30;3.90;;;24.00;1.00;;;;;;6381362;27;20241;-55
2022/10/17 11:51:00;;;;;;;5.23;4.93;;;24.10;1.00;;;;;;6379647;27;20238;-55
2022/10/17 11:54:30;;;;;;;4.37;4.17;;;24.20;1.00;;;;;;6387201;27;20234;-55
2022/10/17 11:57:42;;;;;;;4.77;4.40;;;24.30;1.00;;;;;;6384580;27;20227;-55
2022/10/17 12:00:57;;;;;;;4.53;4.23;;;24.30;1.00;;;;;;6386694;27;20469;-54
2022/10/17 12:04:16;;;;;;;4.87;4.40;;;24.30;1.00;;;;;;6378960;27;20240;-56
2022/10/17 12:07:27;;;;;;;12.00;4.50;;;24.40;1.00;;;;;;6381196;27;20226;-56
2022/10/17 12:10:45;;;;;;;4.53;4.23;;;24.50;1.00;;;;;;6383631;27;20390;-55
2022/10/17 12:13:53;;;;;;;4.63;4.43;;;24.60;1.00;;;;;;6381530;27;20650;-56
2022/10/17 12:16:56;;;;;;;4.43;3.83;;;24.70;1.00;;;;;;6381841;27;20258;-54
2022/10/17 12:20:26;;;;;;;4.97;4.33;;;24.70;1.00;;;;;;6379241;27;20246;-55
2022/10/17 12:23:30;;;;;;;6.13;5.63;;;24.80;1.00;;;;;;6386848;27;20833;-55
2022/10/17 12:26:34;;;;;;;5.03;4.60;;;24.80;1.00;;;;;;6386276;27;20381;-55
2022/10/17 12:29:37;;;;;;;4.77;4.27;;;24.90;1.00;;;;;;6382336;27;20231;-57
2022/10/17 12:33:04;;;;;;;4.73;4.53;;;24.80;1.00;;;;;;6384139;27;20330;-55
2022/10/17 12:36:46;;;;;;;4.77;4.37;;;24.80;1.00;;;;;;6380343;27;20553;-55
2022/10/17 12:39:50;;;;;;;6.83;4.70;;;24.80;1.00;;;;;;6385072;27;20239;-55
2022/10/17 12:42:54;;;;;;;6.93;4.90;;;24.80;1.00;;;;;;6377787;27;20595;-57
2022/10/17 12:45:58;;;;;;;4.77;4.37;;;24.80;1.00;;;;;;6381607;27;20292;-56
2022/10/17 12:49:21;;;;;;;7.63;4.83;;;24.90;1.00;;;;;;6384824;27;20306;-55
2022/10/17 12:52:28;;;;;;;4.40;4.10;;;24.90;1.00;;;;;;6376775;27;20243;-61
2022/10/17 12:55:31;;;;;;;4.90;4.60;;;25.00;1.00;;;;;;6387076;27;20235;-55
2022/10/17 12:58:36;;;;;;;4.67;4.37;;;24.90;1.00;;;;;;6386507;27;20233;-55
2022/10/17 13:01:43;;;;;;;5.20;4.90;;;24.90;1.00;;;;;;6384477;27;20230;-60
2022/10/17 13:04:46;;;;;;;4.67;4.27;;;24.80;1.00;;;;;;6386490;27;20972;-54
2022/10/17 13:07:51;;;;;;;5.87;5.10;;;24.80;1.00;;;;;;6383680;27;20234;-54
2022/10/17 13:10:56;;;;;;;4.70;4.40;;;24.80;1.00;;;;;;6386280;27;20241;-56
2022/10/17 13:14:03;;;;;;;10.53;5.10;;;24.80;1.00;;;;;;6385875;27;20403;-55
2022/10/17 13:17:07;;;;;;;6.20;4.80;;;24.60;1.00;;;;;;6383877;27;20226;-55
2022/10/17 13:20:19;;;;;;;8.50;4.80;;;24.50;1.00;;;;;;6385712;27;20862;-55
2022/10/17 13:23:34;;;;;;;5.97;4.47;;;24.40;1.00;;;;;;6387010;27;20233;-55
2022/10/17 13:26:37;;;;;;;4.70;4.23;;;24.50;1.00;;;;;;6385756;27;20550;-55
2022/10/17 13:29:45;;;;;;;5.17;4.80;;;24.40;1.00;;;;;;6383191;27;20266;-59
2022/10/17 13:32:48;;;;;;;5.27;4.87;;;24.40;1.00;;;;;;6382701;27;20235;-56
2022/10/17 13:35:51;;;;;;;7.07;5.07;;;24.30;1.00;;;;;;6385786;27;20509;-54
2022/10/17 13:39:07;;;;;;;5.17;4.80;;;24.30;1.00;;;;;;6383384;27;20334;-56
2022/10/17 13:42:22;;;;;;;7.70;5.10;;;24.30;1.00;;;;;;6380906;27;20250;-56
2022/10/17 13:45:30;;;;;;;4.70;4.50;;;24.30;1.00;;;;;;6385388;27;20234;-55
2022/10/17 13:48:37;;;;;;;5.00;4.70;;;24.30;1.00;;;;;;6384665;27;20238;-56
2022/10/17 13:51:44;;;;;;;5.67;4.83;;;24.30;1.00;;;;;;6385149;27;20230;-55
2022/10/17 13:54:49;;;;;;;7.10;5.57;;;24.20;1.00;;;;;;6355678;27;20237;-53
2022/10/17 13:57:52;;;;;;;4.67;4.37;;;24.20;1.00;;;;;;6382876;27;20236;-55
2022/10/17 14:00:57;;;;;;;4.83;4.53;;;24.00;1.00;;;;;;6380212;27;20231;-56
2022/10/17 14:04:00;;;;;;;8.33;5.90;;;24.00;1.00;;;;;;6384700;27;20245;-54
2022/10/17 14:07:25;;;;;;;6.00;5.60;;;24.00;1.00;;;;;;6377289;27;20300;-56
2022/10/17 14:10:33;;;;;;;6.07;5.43;;;24.10;1.00;;;;;;6379883;27;20223;-55
2022/10/17 14:13:36;;;;;;;6.53;5.87;;;24.10;1.00;;;;;;6382781;27;20241;-56
2022/10/17 14:16:42;;;;;;;4.73;4.10;;;24.10;1.00;;;;;;6382066;27;20235;-56
2022/10/17 14:19:45;;;;;;;4.87;4.63;;;24.10;1.00;;;;;;6383540;27;20782;-56
2022/10/17 14:23:01;;;;;;;4.63;4.43;;;24.00;1.00;;;;;;6383797;27;20842;-55
2022/10/17 14:26:24;;;;;;;4.93;4.40;;;24.00;1.00;;;;;;6383472;27;20869;-54
2022/10/17 14:29:28;;;;;;;5.83;4.90;;;24.00;1.00;;;;;;6383859;27;20231;-55
2022/10/17 14:32:35;;;;;;;4.80;4.47;;;23.90;1.00;;;;;;6382334;27;20234;-55
2022/10/17 14:35:39;;;;;;;5.07;4.87;;;23.80;1.00;;;;;;6383773;27;20488;-54
2022/10/17 14:38:49;;;;;;;5.10;4.77;;;23.90;1.00;;;;;;6383364;27;20237;-55
2022/10/17 14:41:53;;;;;;;4.70;4.40;;;23.90;1.00;;;;;;6377917;27;20603;-54
2022/10/17 14:45:03;;;;;;;5.17;4.77;;;23.90;1.00;;;;;;6374046;27;20238;-56
2022/10/17 14:48:12;;;;;;;6.17;4.47;;;23.80;1.00;;;;;;6383629;27;20695;-55
2022/10/17 14:51:17;;;;;;;7.70;4.70;;;23.70;1.00;;;;;;6380685;27;20253;-56
2022/10/17 14:54:23;;;;;;;6.63;6.20;;;23.60;1.00;;;;;;6384121;27;20364;-56
2022/10/17 14:57:40;;;;;;;7.60;5.53;;;23.50;1.00;;;;;;6381104;27;20733;-56
2022/10/17 15:00:43;;;;;;;5.60;5.10;;;23.40;1.00;;;;;;6381991;27;20723;-54
2022/10/17 15:03:47;;;;;;;6.60;4.77;;;23.30;1.00;;;;;;6383548;27;20332;-55
2022/10/17 15:06:54;;;;;;;4.77;4.57;;;23.20;1.00;;;;;;6376214;27;20359;-55
2022/10/17 15:09:57;;;;;;;7.87;5.10;;;23.20;1.00;;;;;;6380934;27;20241;-56
2022/10/17 15:13:00;;;;;;;7.97;6.30;;;23.10;1.00;;;;;;6384885;27;20238;-55
2022/10/17 15:16:25;;;;;;;6.00;5.37;;;23.10;1.00;;;;;;6383869;27;20238;-54
2022/10/17 15:19:29;;;;;;;6.13;5.53;;;23.00;1.00;;;;;;6381972;27;20732;-56
2022/10/17 15:22:35;;;;;;;5.13;4.80;;;22.90;1.00;;;;;;6385650;27;20626;-55
2022/10/17 15:25:39;;;;;;;5.30;5.03;;;22.80;1.00;;;;;;6386366;27;20223;-56
2022/10/17 15:28:42;;;;;;;5.77;5.40;;;22.70;1.00;;;;;;6387517;27;20242;-55
2022/10/17 15:31:45;;;;;;;6.50;5.90;;;22.70;1.00;;;;;;6385788;27;20234;-55
2022/10/17 15:34:49;;;;;;;6.80;6.20;;;22.60;1.00;;;;;;6385298;27;20234;-55
2022/10/17 15:37:52;;;;;;;7.33;5.77;;;22.50;1.00;;;;;;6385064;27;20230;-55
2022/10/17 15:40:55;;;;;;;10.27;9.37;;;22.40;1.00;;;;;;6381258;27;20601;-55
2022/10/17 15:43:59;;;;;;;8.67;7.33;;;22.40;1.00;;;;;;6385314;27;20655;-54
2022/10/17 15:47:02;;;;;;;8.37;7.60;;;22.30;1.00;;;;;;6386441;27;20476;-55
2022/10/17 15:50:07;;;;;;;7.03;6.40;;;22.20;1.00;;;;;;6385604;27;20222;-54
2022/10/17 15:53:12;;;;;;;8.77;7.90;;;22.20;1.00;;;;;;6381477;27;20388;-54
2022/10/17 15:56:23;;;;;;;8.67;7.83;;;22.20;1.00;;;;;;6384762;27;20636;-54
2022/10/17 15:59:31;;;;;;;8.63;7.93;;;22.10;1.00;;;;;;6386169;27;20751;-55
2022/10/17 16:02:34;;;;;;;10.90;8.10;;;22.10;1.00;;;;;;6385287;27;20626;-55
2022/10/17 16:05:38;;;;;;;8.00;7.20;;;22.00;1.00;;;;;;6386318;27;20234;-55
2022/10/17 16:08:41;;;;;;;6.93;6.23;;;21.90;1.00;;;;;;6386945;27;20358;-54
2022/10/17 16:11:45;;;;;;;6.37;5.90;;;21.90;1.00;;;;;;6387500;27;20257;-54
2022/10/17 16:14:47;;;;;;;7.83;6.90;;;21.80;1.00;;;;;;6383564;27;20239;-55
2022/10/17 16:17:51;;;;;;;8.00;6.20;;;21.70;1.00;;;;;;6381260;27;20239;-55
2022/10/17 16:20:55;;;;;;;7.17;6.53;;;21.60;1.00;;;;;;6387327;27;20234;-54
2022/10/17 16:23:59;;;;;;;9.00;6.80;;;21.50;1.00;;;;;;6376222;27;20227;-55